WetterOnline ( https://www.wetteronline.ch )

Wetter aktuell Luckenwalde

Aktuelles Wetter: Baruth (55m)

6-stündlich | Neueste Meldungen
Ortszeit Temperatur Wetter
Do, 23.05. 14:00 18.6° C leicht bewölkt
Do, 23.05. 8:00 10.2° C leicht bewölkt
Do, 23.05. 2:00 11.1° C bedeckt
Mi, 22.05. 20:00 12.3° C bedeckt
Mi, 22.05. 14:00 11.9° C Sprühregen
Mi, 22.05. 8:00 12.3° C Regen
Mi, 22.05. 2:00 16.3° C bewölkt
Di, 21.05. 20:00 22.4° C wolkig
Ortszeit Temperatur Wetter
Do, 23.05. 14:00 18.6° C leicht bewölkt
Do, 23.05. 13:30 18.9° C wolkig
Do, 23.05. 13:20 18.9° C wolkig
Do, 23.05. 13:10 18.4° C wolkig
Do, 23.05. 13:00 17.8° C leicht bewölkt
Do, 23.05. 12:50 17.8° C wolkig
Do, 23.05. 12:30 18.2° C wolkig
Do, 23.05. 12:00 17.2° C leicht bewölkt
Do, 23.05. 11:30 15.4° C leicht bewölkt
Do, 23.05. 11:00 14.7° C wolkig
Ortszeit Relative Feuchte Sichtweite
Do, 23.05. 14:00 32% 35 km
Do, 23.05. 8:00 83% 27 km
Do, 23.05. 2:00 82% 35 km
Mi, 22.05. 20:00 85% 19 km
Mi, 22.05. 14:00 94% 9 km
Mi, 22.05. 8:00 96% 4.0 km
Mi, 22.05. 2:00 86% 12 km
Di, 21.05. 20:00 49% 50 km
Ortszeit Relative Feuchte Sichtweite
Do, 23.05. 14:00 32% 35 km
Do, 23.05. 13:30 37% 30 km
Do, 23.05. 13:20 37% -
Do, 23.05. 13:10 34% -
Do, 23.05. 13:00 38% 45 km
Do, 23.05. 12:50 38% -
Do, 23.05. 12:30 39% 45 km
Do, 23.05. 12:00 47% 45 km
Do, 23.05. 11:30 54% 30 km
Do, 23.05. 11:00 58% 60 km
Ortszeit Niederschlagsmenge Niederschlagsart
Do, 23.05. 14:00 0.0 l/m2 in 6 Std. -
Do, 23.05. 8:00 0.1 l/m2 in 12 Std. Regen
Do, 23.05. 2:00 0.0 l/m2 in 6 Std. -
Mi, 22.05. 20:00 2 l/m2 in 12 Std. Regen
Mi, 22.05. 14:00 2 l/m2 in 6 Std. Regen
Mi, 22.05. 8:00 2 l/m2 in 12 Std. Regen
Mi, 22.05. 2:00 0.0 l/m2 in 6 Std. -
Di, 21.05. 20:00 0.0 l/m2 in 12 Std. -
Ortszeit Niederschlagsmenge Niederschlagsart
Do, 23.05. 14:00 0.0 l/m2 in 1 Std. -
Do, 23.05. 13:30 0.0 l/m2 in 1 Std. -
Do, 23.05. 13:20 keine Meldung -
Do, 23.05. 13:10 keine Meldung -
Do, 23.05. 13:00 0.0 l/m2 in 1 Std. -
Do, 23.05. 12:50 keine Meldung -
Do, 23.05. 12:30 0.0 l/m2 in 1 Std. -
Do, 23.05. 12:00 0.0 l/m2 in 1 Std. -
Do, 23.05. 11:30 0.0 l/m2 in 1 Std. -
Do, 23.05. 11:00 0.0 l/m2 in 1 Std. -
Ortszeit Stärke Spitze Richtung
km/h Bft. km/h Grad Sektor
Do, 23.05. 14:00 7 2 28 330° NW
Do, 23.05. 8:00 11 2 18 280° W
Do, 23.05. 2:00 11 2 32 290° W
Mi, 22.05. 20:00 14 3 47 290° W
Mi, 22.05. 14:00 19 3 37 290° W
Mi, 22.05. 8:00 18 3 40 290° W
Mi, 22.05. 2:00 14 3 36 280° W
Di, 21.05. 20:00 9 2 22 310° NW
Ortszeit Stärke Spitze Richtung
km/h Bft. km/h Grad Sektor
Do, 23.05. 14:00 7 2 28 330° NW
Do, 23.05. 13:30 9 2 28 310° NW
Do, 23.05. 13:20 9 2 - 310° NW
Do, 23.05. 13:10 15 3 - 290° W
Do, 23.05. 13:00 11 2 25 310° NW
Do, 23.05. 12:50 11 2 - 310° NW
Do, 23.05. 12:30 7 2 25 320° NW
Do, 23.05. 12:00 9 2 26 300° NW
Do, 23.05. 11:30 11 2 25 290° W
Do, 23.05. 11:00 11 2 22 280° W
Ortszeit Untergrenze Bedeckung Gattung
total tief tief mittel hoch
Do, 23.05. 14:00 8100 m 7/8 0/8 - - -
Do, 23.05. 8:00 3600 m 4/8 1/8 - - -
Do, 23.05. 2:00 2400 m 8/8 8/8 - - -
Mi, 22.05. 20:00 540 m 8/8 8/8 - - -
Mi, 22.05. 14:00 240 m 8/8 8/8 - - -
Mi, 22.05. 8:00 180 m 7/8 7/8 - - -
Mi, 22.05. 2:00 360 m 7/8 6/8 - - -
Di, 21.05. 20:00 4800 m 7/8 7/8 - - -
Ortszeit Bedeckungsgrad in Achtel und Wolkenuntergrenze
Do, 23.05. 14:00 7(8100m)
Do, 23.05. 13:30 7(8400m) 7(9000m)
Do, 23.05. 13:20 7(8400m) 7(9000m)
Do, 23.05. 13:10 7(8400m) 8(9000m)
Do, 23.05. 13:00 8(8700m) 8(10500m)
Do, 23.05. 12:50 8(8700m) 8(10500m)
Do, 23.05. 12:30 7(8700m)
Do, 23.05. 12:00 4(9000m) 4(10500m) 5(10500m)
Do, 23.05. 11:30 1(9000m) 3(10500m) 5(10500m)
Do, 23.05. 11:00 3(870m) 4(9000m) 6(10500m)
Ortszeit Luftdruck NN (hPa) Tendenz (hPa in 3 Std.)
Do, 23.05. 14:00 1018 - 0,6
Do, 23.05. 8:00 1019 + 0,9
Do, 23.05. 2:00 1018 + 0,8
Mi, 22.05. 20:00 1015 + 0,6
Mi, 22.05. 14:00 1014 + 1,2
Mi, 22.05. 8:00 1011 + 1,3
Mi, 22.05. 2:00 1008 + 0,7
Di, 21.05. 20:00 1006 + 0,5
Ortszeit Luftdruck NN (hPa) Tendenz (hPa in 3 Std.)
Do, 23.05. 14:00 1018 - 0,6
Do, 23.05. 13:30 1019 - 0,4
Do, 23.05. 13:20 1019 keine Meldung
Do, 23.05. 13:10 1019 keine Meldung
Do, 23.05. 13:00 1019 - 0,3
Do, 23.05. 12:50 1019 keine Meldung
Do, 23.05. 12:30 1019 - 0,3
Do, 23.05. 12:00 1019 - 0,1
Do, 23.05. 11:30 1019 0,0
Do, 23.05. 11:00 1019 + 0,2
Ortszeit Schneehöhe (cm)
Do, 23.05. 14:00 -
Do, 23.05. 8:00 -
Do, 23.05. 2:00 -
Mi, 22.05. 20:00 -
Mi, 22.05. 14:00 -
Mi, 22.05. 8:00 -
Mi, 22.05. 2:00 -
Di, 21.05. 20:00 -
Ortszeit Schneehöhe (cm)
Do, 23.05. 14:00 -
Do, 23.05. 13:30 -
Do, 23.05. 13:20 -
Do, 23.05. 13:10 -
Do, 23.05. 13:00 -
Do, 23.05. 12:50 -
Do, 23.05. 12:30 -
Do, 23.05. 12:00 -
Do, 23.05. 11:30 -
Do, 23.05. 11:00 -
Link zu dieser Seite / Seite empfehlen

Das Wetter in ...